sensor_id;sensor_type;location;lat;lon;timestamp;P1;durP1;ratioP1;P2;durP2;ratioP2
58864;SDS011;45702;52.982;6.658;2023-05-15T00:01:43;154.90;;;51.78;;
58864;SDS011;45702;52.982;6.658;2023-05-15T00:04:09;150.93;;;51.20;;
58864;SDS011;45702;52.982;6.658;2023-05-15T00:06:35;144.10;;;51.67;;
58864;SDS011;45702;52.982;6.658;2023-05-15T00:09:01;146.98;;;52.17;;
58864;SDS011;45702;52.982;6.658;2023-05-15T00:11:28;142.82;;;51.83;;
58864;SDS011;45702;52.982;6.658;2023-05-15T00:13:53;150.32;;;51.60;;
58864;SDS011;45702;52.982;6.658;2023-05-15T00:16:19;165.55;;;52.30;;
58864;SDS011;45702;52.982;6.658;2023-05-15T00:18:45;139.13;;;50.78;;
58864;SDS011;45702;52.982;6.658;2023-05-15T00:21:10;165.18;;;52.33;;
58864;SDS011;45702;52.982;6.658;2023-05-15T00:23:36;137.30;;;48.60;;
58864;SDS011;45702;52.982;6.658;2023-05-15T00:26:02;153.35;;;50.80;;
58864;SDS011;45702;52.982;6.658;2023-05-15T00:28:28;165.55;;;49.13;;
58864;SDS011;45702;52.982;6.658;2023-05-15T00:30:53;170.60;;;49.50;;
58864;SDS011;45702;52.982;6.658;2023-05-15T00:33:19;140.15;;;49.97;;
58864;SDS011;45702;52.982;6.658;2023-05-15T00:35:45;171.75;;;48.95;;
58864;SDS011;45702;52.982;6.658;2023-05-15T00:38:10;138.75;;;48.63;;
58864;SDS011;45702;52.982;6.658;2023-05-15T00:40:36;137.65;;;47.03;;
58864;SDS011;45702;52.982;6.658;2023-05-15T00:43:03;148.52;;;50.42;;
58864;SDS011;45702;52.982;6.658;2023-05-15T00:45:30;146.90;;;47.85;;
58864;SDS011;45702;52.982;6.658;2023-05-15T00:47:57;156.40;;;49.00;;
58864;SDS011;45702;52.982;6.658;2023-05-15T00:50:23;138.05;;;46.63;;
58864;SDS011;45702;52.982;6.658;2023-05-15T00:52:49;150.50;;;47.63;;
58864;SDS011;45702;52.982;6.658;2023-05-15T00:55:15;136.55;;;47.42;;
58864;SDS011;45702;52.982;6.658;2023-05-15T00:57:42;143.75;;;48.20;;
58864;SDS011;45702;52.982;6.658;2023-05-15T01:00:08;147.35;;;49.25;;
58864;SDS011;45702;52.982;6.658;2023-05-15T01:02:35;143.50;;;49.08;;
58864;SDS011;45702;52.982;6.658;2023-05-15T01:05:02;143.00;;;49.25;;
58864;SDS011;45702;52.982;6.658;2023-05-15T01:07:29;131.00;;;47.78;;
58864;SDS011;45702;52.982;6.658;2023-05-15T01:09:59;139.00;;;48.63;;
58864;SDS011;45702;52.982;6.658;2023-05-15T01:12:27;151.48;;;49.90;;
58864;SDS011;45702;52.982;6.658;2023-05-15T01:14:56;158.00;;;51.13;;
58864;SDS011;45702;52.982;6.658;2023-05-15T01:17:22;166.73;;;51.90;;
58864;SDS011;45702;52.982;6.658;2023-05-15T01:19:49;165.45;;;51.92;;
58864;SDS011;45702;52.982;6.658;2023-05-15T01:28:13;150.10;;;52.03;;
58864;SDS011;45702;52.982;6.658;2023-05-15T01:30:45;184.15;;;50.80;;
58864;SDS011;45702;52.982;6.658;2023-05-15T01:33:17;193.65;;;52.47;;
58864;SDS011;45702;52.982;6.658;2023-05-15T01:38:18;158.70;;;50.97;;
58864;SDS011;45702;52.982;6.658;2023-05-15T01:40:48;173.82;;;52.95;;
58864;SDS011;45702;52.982;6.658;2023-05-15T01:43:21;180.45;;;55.42;;
58864;SDS011;45702;52.982;6.658;2023-05-15T01:45:52;148.38;;;51.22;;
58864;SDS011;45702;52.982;6.658;2023-05-15T01:48:18;153.35;;;52.30;;
58864;SDS011;45702;52.982;6.658;2023-05-15T01:50:46;159.70;;;53.35;;
58864;SDS011;45702;52.982;6.658;2023-05-15T01:53:15;145.63;;;51.22;;
58864;SDS011;45702;52.982;6.658;2023-05-15T01:55:42;146.00;;;51.78;;
58864;SDS011;45702;52.982;6.658;2023-05-15T01:58:10;152.70;;;50.80;;
58864;SDS011;45702;52.982;6.658;2023-05-15T02:00:38;142.45;;;50.65;;
58864;SDS011;45702;52.982;6.658;2023-05-15T02:03:04;144.07;;;49.45;;
58864;SDS011;45702;52.982;6.658;2023-05-15T02:05:31;145.70;;;49.33;;
58864;SDS011;45702;52.982;6.658;2023-05-15T02:07:58;150.05;;;48.10;;
58864;SDS011;45702;52.982;6.658;2023-05-15T02:10:26;144.45;;;48.63;;
58864;SDS011;45702;52.982;6.658;2023-05-15T02:12:52;130.20;;;47.70;;
58864;SDS011;45702;52.982;6.658;2023-05-15T02:15:19;150.52;;;48.60;;
58864;SDS011;45702;52.982;6.658;2023-05-15T02:17:46;147.10;;;49.05;;
58864;SDS011;45702;52.982;6.658;2023-05-15T02:20:12;161.02;;;50.10;;
58864;SDS011;45702;52.982;6.658;2023-05-15T02:22:38;149.52;;;49.00;;
58864;SDS011;45702;52.982;6.658;2023-05-15T02:25:04;169.30;;;50.70;;
58864;SDS011;45702;52.982;6.658;2023-05-15T02:27:53;157.07;;;51.17;;
58864;SDS011;45702;52.982;6.658;2023-05-15T02:30:20;195.93;;;51.63;;
58864;SDS011;45702;52.982;6.658;2023-05-15T02:38:19;173.45;;;53.03;;
58864;SDS011;45702;52.982;6.658;2023-05-15T02:40:54;157.20;;;51.03;;
58864;SDS011;45702;52.982;6.658;2023-05-15T02:43:22;145.63;;;49.55;;
58864;SDS011;45702;52.982;6.658;2023-05-15T02:45:48;228.57;;;53.85;;
58864;SDS011;45702;52.982;6.658;2023-05-15T02:48:16;154.43;;;50.17;;
58864;SDS011;45702;52.982;6.658;2023-05-15T02:50:43;160.55;;;51.55;;
58864;SDS011;45702;52.982;6.658;2023-05-15T02:53:08;158.30;;;49.28;;
58864;SDS011;45702;52.982;6.658;2023-05-15T02:55:35;157.55;;;50.05;;
58864;SDS011;45702;52.982;6.658;2023-05-15T02:58:02;152.13;;;48.92;;
58864;SDS011;45702;52.982;6.658;2023-05-15T03:00:28;176.18;;;49.25;;
58864;SDS011;45702;52.982;6.658;2023-05-15T03:02:54;224.50;;;49.95;;
58864;SDS011;45702;52.982;6.658;2023-05-15T03:05:20;226.25;;;49.70;;
58864;SDS011;45702;52.982;6.658;2023-05-15T03:07:46;153.48;;;48.05;;
58864;SDS011;45702;52.982;6.658;2023-05-15T03:10:11;141.13;;;45.75;;
58864;SDS011;45702;52.982;6.658;2023-05-15T03:12:37;186.00;;;45.95;;
58864;SDS011;45702;52.982;6.658;2023-05-15T03:15:04;146.05;;;45.53;;
58864;SDS011;45702;52.982;6.658;2023-05-15T03:17:30;125.85;;;45.70;;
58864;SDS011;45702;52.982;6.658;2023-05-15T03:19:56;145.85;;;47.15;;
58864;SDS011;45702;52.982;6.658;2023-05-15T03:22:22;148.65;;;46.95;;
58864;SDS011;45702;52.982;6.658;2023-05-15T03:24:47;138.95;;;47.03;;
58864;SDS011;45702;52.982;6.658;2023-05-15T03:27:14;148.10;;;44.95;;
58864;SDS011;45702;52.982;6.658;2023-05-15T03:29:39;153.00;;;45.50;;
58864;SDS011;45702;52.982;6.658;2023-05-15T03:32:06;156.25;;;44.40;;
58864;SDS011;45702;52.982;6.658;2023-05-15T03:34:31;147.98;;;45.58;;
58864;SDS011;45702;52.982;6.658;2023-05-15T03:36:57;177.80;;;46.22;;
58864;SDS011;45702;52.982;6.658;2023-05-15T03:39:23;196.60;;;45.05;;
58864;SDS011;45702;52.982;6.658;2023-05-15T03:41:48;172.70;;;47.60;;
58864;SDS011;45702;52.982;6.658;2023-05-15T03:44:14;127.53;;;44.55;;
58864;SDS011;45702;52.982;6.658;2023-05-15T03:46:40;158.55;;;45.53;;
58864;SDS011;45702;52.982;6.658;2023-05-15T03:49:05;166.52;;;45.05;;
58864;SDS011;45702;52.982;6.658;2023-05-15T03:51:31;137.93;;;45.40;;
58864;SDS011;45702;52.982;6.658;2023-05-15T03:53:57;156.82;;;47.95;;
58864;SDS011;45702;52.982;6.658;2023-05-15T03:56:22;137.13;;;46.95;;
58864;SDS011;45702;52.982;6.658;2023-05-15T03:58:48;138.98;;;47.42;;
58864;SDS011;45702;52.982;6.658;2023-05-15T04:01:14;133.05;;;46.53;;
58864;SDS011;45702;52.982;6.658;2023-05-15T04:03:39;143.38;;;47.28;;
58864;SDS011;45702;52.982;6.658;2023-05-15T04:06:05;131.57;;;45.78;;
58864;SDS011;45702;52.982;6.658;2023-05-15T04:08:31;145.30;;;47.85;;
58864;SDS011;45702;52.982;6.658;2023-05-15T04:10:57;125.05;;;46.13;;
58864;SDS011;45702;52.982;6.658;2023-05-15T04:13:22;142.73;;;47.72;;
58864;SDS011;45702;52.982;6.658;2023-05-15T04:15:48;126.00;;;44.78;;
58864;SDS011;45702;52.982;6.658;2023-05-15T04:18:14;128.55;;;45.38;;
58864;SDS011;45702;52.982;6.658;2023-05-15T04:20:40;117.70;;;42.60;;
58864;SDS011;45702;52.982;6.658;2023-05-15T04:23:05;104.10;;;38.97;;
58864;SDS011;45702;52.982;6.658;2023-05-15T04:25:31;108.70;;;40.03;;
58864;SDS011;45702;52.982;6.658;2023-05-15T04:27:57;108.93;;;39.63;;
58864;SDS011;45702;52.982;6.658;2023-05-15T04:30:22;109.82;;;40.67;;
58864;SDS011;45702;52.982;6.658;2023-05-15T04:32:48;111.50;;;40.47;;
58864;SDS011;45702;52.982;6.658;2023-05-15T04:35:15;121.50;;;41.78;;
58864;SDS011;45702;52.982;6.658;2023-05-15T04:37:42;112.75;;;41.47;;
58864;SDS011;45702;52.982;6.658;2023-05-15T04:40:09;124.43;;;44.40;;
58864;SDS011;45702;52.982;6.658;2023-05-15T04:42:37;114.78;;;41.03;;
58864;SDS011;45702;52.982;6.658;2023-05-15T04:45:02;121.90;;;42.35;;
58864;SDS011;45702;52.982;6.658;2023-05-15T04:47:29;117.30;;;42.40;;
58864;SDS011;45702;52.982;6.658;2023-05-15T04:49:55;114.60;;;42.10;;
58864;SDS011;45702;52.982;6.658;2023-05-15T04:52:20;111.95;;;41.75;;
58864;SDS011;45702;52.982;6.658;2023-05-15T04:54:46;119.70;;;42.03;;
58864;SDS011;45702;52.982;6.658;2023-05-15T04:57:15;118.75;;;41.50;;
58864;SDS011;45702;52.982;6.658;2023-05-15T04:59:41;123.57;;;42.83;;
58864;SDS011;45702;52.982;6.658;2023-05-15T05:02:08;117.00;;;42.45;;
58864;SDS011;45702;52.982;6.658;2023-05-15T05:04:34;104.93;;;38.53;;
58864;SDS011;45702;52.982;6.658;2023-05-15T05:06:59;97.75;;;36.70;;
58864;SDS011;45702;52.982;6.658;2023-05-15T05:09:28;93.22;;;36.42;;
58864;SDS011;45702;52.982;6.658;2023-05-15T05:11:53;84.88;;;35.67;;
58864;SDS011;45702;52.982;6.658;2023-05-15T05:14:20;78.40;;;33.47;;
58864;SDS011;45702;52.982;6.658;2023-05-15T05:16:46;80.85;;;34.05;;
58864;SDS011;45702;52.982;6.658;2023-05-15T05:19:12;86.10;;;33.63;;
58864;SDS011;45702;52.982;6.658;2023-05-15T05:21:37;84.18;;;33.35;;
58864;SDS011;45702;52.982;6.658;2023-05-15T05:24:03;80.38;;;34.45;;
58864;SDS011;45702;52.982;6.658;2023-05-15T05:26:29;78.38;;;32.95;;
58864;SDS011;45702;52.982;6.658;2023-05-15T05:28:55;77.15;;;33.53;;
58864;SDS011;45702;52.982;6.658;2023-05-15T05:31:20;76.40;;;32.80;;
58864;SDS011;45702;52.982;6.658;2023-05-15T05:33:47;77.70;;;32.92;;
58864;SDS011;45702;52.982;6.658;2023-05-15T05:36:13;76.68;;;33.30;;
58864;SDS011;45702;52.982;6.658;2023-05-15T05:38:40;65.80;;;31.10;;
58864;SDS011;45702;52.982;6.658;2023-05-15T05:41:06;70.90;;;32.25;;
58864;SDS011;45702;52.982;6.658;2023-05-15T05:43:32;72.05;;;31.77;;
58864;SDS011;45702;52.982;6.658;2023-05-15T05:45:57;68.38;;;31.10;;
58864;SDS011;45702;52.982;6.658;2023-05-15T05:48:23;71.35;;;32.92;;
58864;SDS011;45702;52.982;6.658;2023-05-15T05:50:50;71.68;;;31.42;;
58864;SDS011;45702;52.982;6.658;2023-05-15T05:53:16;66.55;;;32.50;;
58864;SDS011;45702;52.982;6.658;2023-05-15T05:55:42;67.20;;;32.53;;
58864;SDS011;45702;52.982;6.658;2023-05-15T05:58:08;65.72;;;31.50;;
58864;SDS011;45702;52.982;6.658;2023-05-15T06:00:34;66.07;;;31.75;;
58864;SDS011;45702;52.982;6.658;2023-05-15T06:03:00;66.07;;;31.30;;
58864;SDS011;45702;52.982;6.658;2023-05-15T06:05:25;67.30;;;31.20;;
58864;SDS011;45702;52.982;6.658;2023-05-15T06:07:52;68.55;;;32.97;;
58864;SDS011;45702;52.982;6.658;2023-05-15T06:10:18;68.65;;;31.50;;
58864;SDS011;45702;52.982;6.658;2023-05-15T06:12:44;62.65;;;28.77;;
58864;SDS011;45702;52.982;6.658;2023-05-15T06:15:10;65.28;;;29.95;;
58864;SDS011;45702;52.982;6.658;2023-05-15T06:17:36;62.70;;;29.73;;
58864;SDS011;45702;52.982;6.658;2023-05-15T06:20:04;60.28;;;29.70;;
58864;SDS011;45702;52.982;6.658;2023-05-15T06:22:34;70.25;;;31.02;;
58864;SDS011;45702;52.982;6.658;2023-05-15T06:25:04;63.10;;;30.58;;
58864;SDS011;45702;52.982;6.658;2023-05-15T06:27:33;64.65;;;31.38;;
58864;SDS011;45702;52.982;6.658;2023-05-15T06:29:59;62.65;;;29.85;;
58864;SDS011;45702;52.982;6.658;2023-05-15T06:32:25;66.93;;;30.08;;
58864;SDS011;45702;52.982;6.658;2023-05-15T06:34:51;57.05;;;28.55;;
58864;SDS011;45702;52.982;6.658;2023-05-15T06:37:16;61.30;;;29.92;;
58864;SDS011;45702;52.982;6.658;2023-05-15T06:39:42;60.80;;;30.42;;
58864;SDS011;45702;52.982;6.658;2023-05-15T06:42:08;59.08;;;29.50;;
58864;SDS011;45702;52.982;6.658;2023-05-15T06:44:33;55.13;;;29.10;;
58864;SDS011;45702;52.982;6.658;2023-05-15T06:47:00;58.45;;;28.85;;
58864;SDS011;45702;52.982;6.658;2023-05-15T06:49:26;55.33;;;28.75;;
58864;SDS011;45702;52.982;6.658;2023-05-15T06:51:52;57.58;;;29.42;;
58864;SDS011;45702;52.982;6.658;2023-05-15T06:54:19;55.95;;;28.75;;
58864;SDS011;45702;52.982;6.658;2023-05-15T06:56:44;60.92;;;29.20;;
58864;SDS011;45702;52.982;6.658;2023-05-15T06:59:11;57.25;;;29.05;;
58864;SDS011;45702;52.982;6.658;2023-05-15T07:01:36;56.72;;;29.08;;
58864;SDS011;45702;52.982;6.658;2023-05-15T07:04:02;56.40;;;29.50;;
58864;SDS011;45702;52.982;6.658;2023-05-15T07:06:29;57.65;;;29.98;;
58864;SDS011;45702;52.982;6.658;2023-05-15T07:08:58;62.85;;;30.58;;
58864;SDS011;45702;52.982;6.658;2023-05-15T07:11:24;56.38;;;28.90;;
58864;SDS011;45702;52.982;6.658;2023-05-15T07:13:53;54.72;;;28.98;;
58864;SDS011;45702;52.982;6.658;2023-05-15T07:16:19;53.47;;;26.83;;
58864;SDS011;45702;52.982;6.658;2023-05-15T07:18:45;53.80;;;28.55;;
58864;SDS011;45702;52.982;6.658;2023-05-15T07:21:10;57.35;;;29.08;;
58864;SDS011;45702;52.982;6.658;2023-05-15T07:23:36;57.83;;;28.92;;
58864;SDS011;45702;52.982;6.658;2023-05-15T07:26:02;57.45;;;29.20;;
58864;SDS011;45702;52.982;6.658;2023-05-15T07:28:27;53.33;;;26.98;;
58864;SDS011;45702;52.982;6.658;2023-05-15T07:30:53;55.85;;;28.13;;
58864;SDS011;45702;52.982;6.658;2023-05-15T07:33:19;56.92;;;28.42;;
58864;SDS011;45702;52.982;6.658;2023-05-15T07:35:44;59.03;;;29.45;;
58864;SDS011;45702;52.982;6.658;2023-05-15T07:38:11;60.90;;;29.00;;
58864;SDS011;45702;52.982;6.658;2023-05-15T07:40:36;55.42;;;28.27;;
58864;SDS011;45702;52.982;6.658;2023-05-15T07:43:02;52.72;;;27.85;;
58864;SDS011;45702;52.982;6.658;2023-05-15T07:45:28;47.63;;;25.00;;
58864;SDS011;45702;52.982;6.658;2023-05-15T07:47:54;47.97;;;25.42;;
58864;SDS011;45702;52.982;6.658;2023-05-15T07:50:20;49.85;;;26.45;;
58864;SDS011;45702;52.982;6.658;2023-05-15T07:52:45;50.30;;;25.50;;
58864;SDS011;45702;52.982;6.658;2023-05-15T07:55:11;46.50;;;25.45;;
58864;SDS011;45702;52.982;6.658;2023-05-15T07:57:37;44.28;;;24.33;;
58864;SDS011;45702;52.982;6.658;2023-05-15T08:00:04;48.95;;;26.75;;
58864;SDS011;45702;52.982;6.658;2023-05-15T08:02:35;45.92;;;24.75;;
58864;SDS011;45702;52.982;6.658;2023-05-15T08:05:00;46.45;;;24.63;;
58864;SDS011;45702;52.982;6.658;2023-05-15T08:07:26;47.40;;;25.02;;
58864;SDS011;45702;52.982;6.658;2023-05-15T08:09:54;43.47;;;22.95;;
58864;SDS011;45702;52.982;6.658;2023-05-15T08:12:20;46.85;;;24.52;;
58864;SDS011;45702;52.982;6.658;2023-05-15T08:14:50;45.03;;;24.45;;
58864;SDS011;45702;52.982;6.658;2023-05-15T08:17:17;45.58;;;24.15;;
58864;SDS011;45702;52.982;6.658;2023-05-15T08:19:44;44.35;;;22.95;;
58864;SDS011;45702;52.982;6.658;2023-05-15T08:22:10;45.25;;;25.05;;
58864;SDS011;45702;52.982;6.658;2023-05-15T08:24:36;44.78;;;24.25;;
58864;SDS011;45702;52.982;6.658;2023-05-15T08:27:05;43.20;;;24.23;;
58864;SDS011;45702;52.982;6.658;2023-05-15T08:29:32;42.67;;;24.38;;
58864;SDS011;45702;52.982;6.658;2023-05-15T08:32:01;45.67;;;24.08;;
58864;SDS011;45702;52.982;6.658;2023-05-15T08:34:27;44.55;;;23.50;;
58864;SDS011;45702;52.982;6.658;2023-05-15T08:36:53;46.58;;;25.02;;
58864;SDS011;45702;52.982;6.658;2023-05-15T08:39:19;44.70;;;22.63;;
58864;SDS011;45702;52.982;6.658;2023-05-15T08:41:50;41.38;;;23.05;;
58864;SDS011;45702;52.982;6.658;2023-05-15T08:44:17;45.88;;;24.23;;
58864;SDS011;45702;52.982;6.658;2023-05-15T08:46:45;51.70;;;24.73;;
58864;SDS011;45702;52.982;6.658;2023-05-15T08:51:51;50.70;;;23.92;;
58864;SDS011;45702;52.982;6.658;2023-05-15T08:54:18;43.95;;;24.08;;
58864;SDS011;45702;52.982;6.658;2023-05-15T08:56:46;46.17;;;25.50;;
58864;SDS011;45702;52.982;6.658;2023-05-15T08:59:15;42.50;;;23.42;;
58864;SDS011;45702;52.982;6.658;2023-05-15T09:01:41;41.33;;;21.85;;
58864;SDS011;45702;52.982;6.658;2023-05-15T09:04:07;37.35;;;22.00;;
58864;SDS011;45702;52.982;6.658;2023-05-15T09:06:33;32.08;;;19.13;;
58864;SDS011;45702;52.982;6.658;2023-05-15T09:08:59;32.47;;;18.45;;
58864;SDS011;45702;52.982;6.658;2023-05-15T09:11:25;31.83;;;19.40;;
58864;SDS011;45702;52.982;6.658;2023-05-15T09:13:52;26.30;;;16.42;;
58864;SDS011;45702;52.982;6.658;2023-05-15T09:16:17;25.15;;;15.25;;
58864;SDS011;45702;52.982;6.658;2023-05-15T09:18:45;30.10;;;16.40;;
58864;SDS011;45702;52.982;6.658;2023-05-15T09:21:22;32.30;;;18.15;;
58864;SDS011;45702;52.982;6.658;2023-05-15T09:23:49;31.13;;;17.88;;
58864;SDS011;45702;52.982;6.658;2023-05-15T09:26:14;30.13;;;17.17;;
58864;SDS011;45702;52.982;6.658;2023-05-15T09:28:40;27.83;;;16.48;;
58864;SDS011;45702;52.982;6.658;2023-05-15T09:31:06;32.22;;;17.58;;
58864;SDS011;45702;52.982;6.658;2023-05-15T09:33:37;29.05;;;17.00;;
58864;SDS011;45702;52.982;6.658;2023-05-15T09:36:05;29.02;;;18.27;;
58864;SDS011;45702;52.982;6.658;2023-05-15T09:38:32;25.10;;;15.65;;
58864;SDS011;45702;52.982;6.658;2023-05-15T09:41:05;28.52;;;17.00;;
58864;SDS011;45702;52.982;6.658;2023-05-15T09:43:32;30.77;;;16.67;;
58864;SDS011;45702;52.982;6.658;2023-05-15T09:46:00;31.45;;;18.17;;
58864;SDS011;45702;52.982;6.658;2023-05-15T09:48:27;34.38;;;18.50;;
58864;SDS011;45702;52.982;6.658;2023-05-15T09:50:53;33.60;;;17.42;;
58864;SDS011;45702;52.982;6.658;2023-05-15T09:53:20;30.02;;;16.85;;
58864;SDS011;45702;52.982;6.658;2023-05-15T09:55:46;25.25;;;16.67;;
58864;SDS011;45702;52.982;6.658;2023-05-15T09:58:13;25.58;;;15.95;;
58864;SDS011;45702;52.982;6.658;2023-05-15T10:00:43;26.27;;;16.10;;
58864;SDS011;45702;52.982;6.658;2023-05-15T10:03:10;28.90;;;16.07;;
58864;SDS011;45702;52.982;6.658;2023-05-15T10:05:36;24.77;;;15.73;;
58864;SDS011;45702;52.982;6.658;2023-05-15T10:08:03;27.27;;;16.55;;
58864;SDS011;45702;52.982;6.658;2023-05-15T10:10:29;28.25;;;17.60;;
58864;SDS011;45702;52.982;6.658;2023-05-15T10:12:56;29.98;;;16.80;;
58864;SDS011;45702;52.982;6.658;2023-05-15T10:15:25;28.85;;;17.50;;
58864;SDS011;45702;52.982;6.658;2023-05-15T10:17:52;25.25;;;15.63;;
58864;SDS011;45702;52.982;6.658;2023-05-15T10:20:20;25.40;;;14.82;;
58864;SDS011;45702;52.982;6.658;2023-05-15T10:22:48;27.02;;;16.45;;
58864;SDS011;45702;52.982;6.658;2023-05-15T10:27:56;32.17;;;16.70;;
58864;SDS011;45702;52.982;6.658;2023-05-15T10:30:22;27.88;;;16.50;;
58864;SDS011;45702;52.982;6.658;2023-05-15T10:32:50;24.67;;;15.45;;
58864;SDS011;45702;52.982;6.658;2023-05-15T10:35:16;25.75;;;14.77;;
58864;SDS011;45702;52.982;6.658;2023-05-15T10:37:46;25.23;;;15.15;;
58864;SDS011;45702;52.982;6.658;2023-05-15T10:40:13;22.92;;;13.45;;
58864;SDS011;45702;52.982;6.658;2023-05-15T10:42:44;23.70;;;14.53;;
58864;SDS011;45702;52.982;6.658;2023-05-15T10:45:11;26.20;;;13.68;;
58864;SDS011;45702;52.982;6.658;2023-05-15T10:47:37;27.40;;;16.38;;
58864;SDS011;45702;52.982;6.658;2023-05-15T10:50:05;26.97;;;15.87;;
58864;SDS011;45702;52.982;6.658;2023-05-15T10:52:32;26.17;;;15.23;;
58864;SDS011;45702;52.982;6.658;2023-05-15T10:54:58;31.90;;;16.92;;
58864;SDS011;45702;52.982;6.658;2023-05-15T10:57:24;26.58;;;16.48;;
58864;SDS011;45702;52.982;6.658;2023-05-15T10:59:53;27.75;;;16.48;;
58864;SDS011;45702;52.982;6.658;2023-05-15T11:02:21;23.98;;;15.80;;
58864;SDS011;45702;52.982;6.658;2023-05-15T11:05:00;27.63;;;16.92;;
58864;SDS011;45702;52.982;6.658;2023-05-15T11:07:30;30.70;;;17.00;;
58864;SDS011;45702;52.982;6.658;2023-05-15T11:09:56;27.17;;;15.93;;
58864;SDS011;45702;52.982;6.658;2023-05-15T11:12:21;24.33;;;15.35;;
58864;SDS011;45702;52.982;6.658;2023-05-15T11:17:21;26.13;;;16.00;;
58864;SDS011;45702;52.982;6.658;2023-05-15T11:24:49;25.75;;;16.35;;
58864;SDS011;45702;52.982;6.658;2023-05-15T11:27:26;28.88;;;16.55;;
58864;SDS011;45702;52.982;6.658;2023-05-15T11:30:02;23.33;;;14.85;;
58864;SDS011;45702;52.982;6.658;2023-05-15T11:32:59;30.27;;;17.38;;
58864;SDS011;45702;52.982;6.658;2023-05-15T11:35:26;27.95;;;16.73;;
58864;SDS011;45702;52.982;6.658;2023-05-15T11:37:57;26.80;;;16.77;;
58864;SDS011;45702;52.982;6.658;2023-05-15T11:40:24;30.02;;;16.40;;
58864;SDS011;45702;52.982;6.658;2023-05-15T11:45:28;26.58;;;15.70;;
58864;SDS011;45702;52.982;6.658;2023-05-15T11:47:56;28.58;;;17.40;;
58864;SDS011;45702;52.982;6.658;2023-05-15T11:52:50;27.25;;;17.45;;
58864;SDS011;45702;52.982;6.658;2023-05-15T11:55:17;28.02;;;17.15;;
58864;SDS011;45702;52.982;6.658;2023-05-15T11:57:47;25.20;;;16.02;;
58864;SDS011;45702;52.982;6.658;2023-05-15T12:00:13;28.15;;;16.08;;
58864;SDS011;45702;52.982;6.658;2023-05-15T12:02:39;24.50;;;15.93;;
58864;SDS011;45702;52.982;6.658;2023-05-15T12:05:06;29.70;;;17.45;;
58864;SDS011;45702;52.982;6.658;2023-05-15T12:07:36;26.58;;;16.65;;
58864;SDS011;45702;52.982;6.658;2023-05-15T12:10:03;24.27;;;16.63;;
58864;SDS011;45702;52.982;6.658;2023-05-15T12:12:29;34.40;;;18.90;;
58864;SDS011;45702;52.982;6.658;2023-05-15T12:14:58;30.20;;;17.55;;
58864;SDS011;45702;52.982;6.658;2023-05-15T12:17:24;26.67;;;16.48;;
58864;SDS011;45702;52.982;6.658;2023-05-15T12:19:50;23.83;;;15.48;;
58864;SDS011;45702;52.982;6.658;2023-05-15T12:22:16;25.25;;;15.52;;
58864;SDS011;45702;52.982;6.658;2023-05-15T12:24:43;22.90;;;15.70;;
58864;SDS011;45702;52.982;6.658;2023-05-15T12:27:09;25.55;;;15.25;;
58864;SDS011;45702;52.982;6.658;2023-05-15T12:29:36;25.30;;;15.30;;
58864;SDS011;45702;52.982;6.658;2023-05-15T12:32:04;22.55;;;14.25;;
58864;SDS011;45702;52.982;6.658;2023-05-15T12:34:30;24.42;;;16.35;;
58864;SDS011;45702;52.982;6.658;2023-05-15T12:36:57;22.55;;;14.75;;
58864;SDS011;45702;52.982;6.658;2023-05-15T12:39:24;29.05;;;16.92;;
58864;SDS011;45702;52.982;6.658;2023-05-15T12:41:51;30.40;;;17.52;;
58864;SDS011;45702;52.982;6.658;2023-05-15T12:44:20;32.10;;;19.27;;
58864;SDS011;45702;52.982;6.658;2023-05-15T12:46:46;31.50;;;19.75;;
58864;SDS011;45702;52.982;6.658;2023-05-15T12:49:12;29.80;;;19.77;;
58864;SDS011;45702;52.982;6.658;2023-05-15T12:51:41;32.53;;;19.42;;
58864;SDS011;45702;52.982;6.658;2023-05-15T12:54:15;32.97;;;21.23;;
58864;SDS011;45702;52.982;6.658;2023-05-15T12:56:44;36.72;;;20.48;;
58864;SDS011;45702;52.982;6.658;2023-05-15T12:59:11;30.48;;;18.65;;
58864;SDS011;45702;52.982;6.658;2023-05-15T13:01:36;29.50;;;18.10;;
58864;SDS011;45702;52.982;6.658;2023-05-15T13:04:02;30.00;;;16.95;;
58864;SDS011;45702;52.982;6.658;2023-05-15T13:06:28;26.30;;;17.02;;
58864;SDS011;45702;52.982;6.658;2023-05-15T13:08:54;29.42;;;17.35;;
58864;SDS011;45702;52.982;6.658;2023-05-15T13:11:19;24.65;;;16.20;;
58864;SDS011;45702;52.982;6.658;2023-05-15T13:13:47;27.77;;;15.05;;
58864;SDS011;45702;52.982;6.658;2023-05-15T13:16:20;23.90;;;14.45;;
58864;SDS011;45702;52.982;6.658;2023-05-15T13:18:51;24.45;;;15.23;;
58864;SDS011;45702;52.982;6.658;2023-05-15T13:21:17;25.08;;;14.50;;
58864;SDS011;45702;52.982;6.658;2023-05-15T13:23:43;19.58;;;12.48;;
58864;SDS011;45702;52.982;6.658;2023-05-15T13:26:08;16.63;;;11.10;;
58864;SDS011;45702;52.982;6.658;2023-05-15T13:28:34;17.90;;;10.80;;
58864;SDS011;45702;52.982;6.658;2023-05-15T13:31:00;14.23;;;10.32;;
58864;SDS011;45702;52.982;6.658;2023-05-15T13:33:26;13.70;;;9.82;;
58864;SDS011;45702;52.982;6.658;2023-05-15T13:35:53;18.50;;;10.73;;
58864;SDS011;45702;52.982;6.658;2023-05-15T13:38:18;18.88;;;11.77;;
58864;SDS011;45702;52.982;6.658;2023-05-15T13:40:44;22.27;;;13.50;;
58864;SDS011;45702;52.982;6.658;2023-05-15T13:43:10;19.58;;;12.90;;
58864;SDS011;45702;52.982;6.658;2023-05-15T13:45:36;21.35;;;13.52;;
58864;SDS011;45702;52.982;6.658;2023-05-15T13:48:02;22.17;;;14.45;;
58864;SDS011;45702;52.982;6.658;2023-05-15T13:50:28;22.48;;;14.75;;
58864;SDS011;45702;52.982;6.658;2023-05-15T13:52:54;23.00;;;15.32;;
58864;SDS011;45702;52.982;6.658;2023-05-15T13:55:19;28.27;;;15.40;;
58864;SDS011;45702;52.982;6.658;2023-05-15T13:57:45;26.55;;;16.17;;
58864;SDS011;45702;52.982;6.658;2023-05-15T14:00:11;26.13;;;15.15;;
58864;SDS011;45702;52.982;6.658;2023-05-15T14:02:42;27.15;;;17.17;;
58864;SDS011;45702;52.982;6.658;2023-05-15T14:05:09;24.10;;;15.65;;
58864;SDS011;45702;52.982;6.658;2023-05-15T14:07:36;24.77;;;15.02;;
58864;SDS011;45702;52.982;6.658;2023-05-15T14:10:02;28.33;;;16.88;;
58864;SDS011;45702;52.982;6.658;2023-05-15T14:12:28;24.83;;;16.13;;
58864;SDS011;45702;52.982;6.658;2023-05-15T14:14:54;29.05;;;16.35;;
58864;SDS011;45702;52.982;6.658;2023-05-15T14:17:21;28.70;;;16.52;;
58864;SDS011;45702;52.982;6.658;2023-05-15T14:19:47;27.60;;;16.80;;
58864;SDS011;45702;52.982;6.658;2023-05-15T14:22:13;29.63;;;16.90;;
58864;SDS011;45702;52.982;6.658;2023-05-15T14:24:39;28.63;;;16.27;;
58864;SDS011;45702;52.982;6.658;2023-05-15T14:27:05;28.50;;;16.58;;
58864;SDS011;45702;52.982;6.658;2023-05-15T14:29:31;29.13;;;16.88;;
58864;SDS011;45702;52.982;6.658;2023-05-15T14:31:57;28.13;;;17.17;;
58864;SDS011;45702;52.982;6.658;2023-05-15T14:34:23;28.10;;;17.30;;
58864;SDS011;45702;52.982;6.658;2023-05-15T14:36:49;34.22;;;18.70;;
58864;SDS011;45702;52.982;6.658;2023-05-15T14:39:15;33.60;;;18.08;;
58864;SDS011;45702;52.982;6.658;2023-05-15T14:41:41;31.17;;;18.02;;
58864;SDS011;45702;52.982;6.658;2023-05-15T14:44:08;34.00;;;19.15;;
58864;SDS011;45702;52.982;6.658;2023-05-15T14:46:34;33.42;;;19.23;;